sensor_id;sensor_type;location;lat;lon;timestamp;P1;durP1;ratioP1;P2;durP2;ratioP2
10088;SDS011;51898;49.864;8.550;2023-03-11T00:01:04;3.03;;;1.80;;
10088;SDS011;51898;49.864;8.550;2023-03-11T00:04:06;2.90;;;1.77;;
10088;SDS011;51898;49.864;8.550;2023-03-11T00:07:08;1.50;;;1.40;;
10088;SDS011;51898;49.864;8.550;2023-03-11T00:10:16;2.03;;;1.27;;
10088;SDS011;51898;49.864;8.550;2023-03-11T00:13:21;2.60;;;0.90;;
10088;SDS011;51898;49.864;8.550;2023-03-11T00:16:23;2.27;;;1.20;;
10088;SDS011;51898;49.864;8.550;2023-03-11T00:19:24;1.40;;;1.13;;
10088;SDS011;51898;49.864;8.550;2023-03-11T00:22:26;1.33;;;1.00;;
10088;SDS011;51898;49.864;8.550;2023-03-11T00:25:28;1.60;;;1.20;;
10088;SDS011;51898;49.864;8.550;2023-03-11T00:28:32;1.77;;;1.00;;
10088;SDS011;51898;49.864;8.550;2023-03-11T00:31:34;2.03;;;1.00;;
10088;SDS011;51898;49.864;8.550;2023-03-11T00:34:36;2.13;;;1.17;;
10088;SDS011;51898;49.864;8.550;2023-03-11T00:37:37;7.20;;;1.33;;
10088;SDS011;51898;49.864;8.550;2023-03-11T00:40:39;0.73;;;0.73;;
10088;SDS011;51898;49.864;8.550;2023-03-11T00:43:41;0.60;;;0.60;;
10088;SDS011;51898;49.864;8.550;2023-03-11T00:46:43;0.97;;;0.87;;
10088;SDS011;51898;49.864;8.550;2023-03-11T00:49:45;2.80;;;0.90;;
10088;SDS011;51898;49.864;8.550;2023-03-11T00:52:47;4.50;;;0.97;;
10088;SDS011;51898;49.864;8.550;2023-03-11T00:55:49;0.80;;;0.80;;
10088;SDS011;51898;49.864;8.550;2023-03-11T00:58:51;2.10;;;1.37;;
10088;SDS011;51898;49.864;8.550;2023-03-11T01:01:52;4.03;;;1.47;;
10088;SDS011;51898;49.864;8.550;2023-03-11T01:04:54;1.03;;;0.77;;
10088;SDS011;51898;49.864;8.550;2023-03-11T01:07:56;1.20;;;0.90;;
10088;SDS011;51898;49.864;8.550;2023-03-11T01:10:58;1.93;;;1.00;;
10088;SDS011;51898;49.864;8.550;2023-03-11T01:14:00;2.50;;;1.27;;
10088;SDS011;51898;49.864;8.550;2023-03-11T01:17:02;1.10;;;1.00;;
10088;SDS011;51898;49.864;8.550;2023-03-11T01:20:04;3.00;;;0.87;;
10088;SDS011;51898;49.864;8.550;2023-03-11T01:23:08;1.67;;;0.93;;
10088;SDS011;51898;49.864;8.550;2023-03-11T01:26:11;1.37;;;0.90;;
10088;SDS011;51898;49.864;8.550;2023-03-11T01:29:12;2.07;;;0.77;;
10088;SDS011;51898;49.864;8.550;2023-03-11T01:32:14;2.27;;;0.70;;
10088;SDS011;51898;49.864;8.550;2023-03-11T01:35:17;2.33;;;1.20;;
10088;SDS011;51898;49.864;8.550;2023-03-11T01:38:20;5.23;;;1.10;;
10088;SDS011;51898;49.864;8.550;2023-03-11T01:41:22;2.77;;;1.20;;
10088;SDS011;51898;49.864;8.550;2023-03-11T01:44:23;1.93;;;0.80;;
10088;SDS011;51898;49.864;8.550;2023-03-11T01:47:33;1.83;;;1.13;;
10088;SDS011;51898;49.864;8.550;2023-03-11T01:50:38;2.00;;;0.90;;
10088;SDS011;51898;49.864;8.550;2023-03-11T01:53:42;5.13;;;1.27;;
10088;SDS011;51898;49.864;8.550;2023-03-11T01:56:44;5.67;;;1.43;;
10088;SDS011;51898;49.864;8.550;2023-03-11T01:59:48;3.90;;;1.43;;
10088;SDS011;51898;49.864;8.550;2023-03-11T02:02:52;3.80;;;1.37;;
10088;SDS011;51898;49.864;8.550;2023-03-11T02:05:59;4.60;;;2.63;;
10088;SDS011;51898;49.864;8.550;2023-03-11T02:09:03;35.10;;;1.73;;
10088;SDS011;51898;49.864;8.550;2023-03-11T02:12:05;1.00;;;1.00;;
10088;SDS011;51898;49.864;8.550;2023-03-11T02:15:09;3.77;;;0.80;;
10088;SDS011;51898;49.864;8.550;2023-03-11T02:18:12;2.60;;;1.50;;
10088;SDS011;51898;49.864;8.550;2023-03-11T02:21:22;5.80;;;1.53;;
10088;SDS011;51898;49.864;8.550;2023-03-11T02:27:44;4.77;;;1.30;;
10088;SDS011;51898;49.864;8.550;2023-03-11T02:30:48;1.40;;;1.00;;
10088;SDS011;51898;49.864;8.550;2023-03-11T02:33:51;3.80;;;1.30;;
10088;SDS011;51898;49.864;8.550;2023-03-11T02:36:54;3.27;;;0.90;;
10088;SDS011;51898;49.864;8.550;2023-03-11T02:40:19;5.83;;;1.33;;
10088;SDS011;51898;49.864;8.550;2023-03-11T02:43:27;1.80;;;1.40;;
10088;SDS011;51898;49.864;8.550;2023-03-11T02:46:31;4.03;;;1.13;;
10088;SDS011;51898;49.864;8.550;2023-03-11T02:49:33;3.97;;;1.53;;
10088;SDS011;51898;49.864;8.550;2023-03-11T02:52:35;10.43;;;1.37;;
10088;SDS011;51898;49.864;8.550;2023-03-11T02:55:37;3.60;;;1.37;;
10088;SDS011;51898;49.864;8.550;2023-03-11T02:58:39;2.30;;;1.40;;
10088;SDS011;51898;49.864;8.550;2023-03-11T03:01:41;3.53;;;1.40;;
10088;SDS011;51898;49.864;8.550;2023-03-11T03:04:43;4.60;;;1.37;;
10088;SDS011;51898;49.864;8.550;2023-03-11T03:07:45;7.47;;;1.47;;
10088;SDS011;51898;49.864;8.550;2023-03-11T03:10:48;1.40;;;1.10;;
10088;SDS011;51898;49.864;8.550;2023-03-11T03:13:49;3.63;;;1.50;;
10088;SDS011;51898;49.864;8.550;2023-03-11T03:16:51;3.40;;;1.50;;
10088;SDS011;51898;49.864;8.550;2023-03-11T03:19:53;2.20;;;1.30;;
10088;SDS011;51898;49.864;8.550;2023-03-11T03:22:54;3.63;;;1.43;;
10088;SDS011;51898;49.864;8.550;2023-03-11T03:25:56;2.47;;;1.27;;
10088;SDS011;51898;49.864;8.550;2023-03-11T03:28:58;5.07;;;1.30;;
10088;SDS011;51898;49.864;8.550;2023-03-11T03:31:59;4.17;;;1.97;;
10088;SDS011;51898;49.864;8.550;2023-03-11T03:35:01;3.80;;;1.67;;
10088;SDS011;51898;49.864;8.550;2023-03-11T03:38:03;4.27;;;1.50;;
10088;SDS011;51898;49.864;8.550;2023-03-11T03:41:05;1.63;;;1.10;;
10088;SDS011;51898;49.864;8.550;2023-03-11T03:44:06;3.93;;;1.53;;
10088;SDS011;51898;49.864;8.550;2023-03-11T03:47:08;4.10;;;1.53;;
10088;SDS011;51898;49.864;8.550;2023-03-11T03:50:10;9.03;;;1.77;;
10088;SDS011;51898;49.864;8.550;2023-03-11T03:53:12;7.67;;;1.80;;
10088;SDS011;51898;49.864;8.550;2023-03-11T03:56:15;5.90;;;1.70;;
10088;SDS011;51898;49.864;8.550;2023-03-11T03:59:18;7.40;;;2.73;;
10088;SDS011;51898;49.864;8.550;2023-03-11T04:02:19;4.37;;;1.77;;
10088;SDS011;51898;49.864;8.550;2023-03-11T04:05:21;3.63;;;1.60;;
10088;SDS011;51898;49.864;8.550;2023-03-11T04:08:26;3.53;;;1.60;;
10088;SDS011;51898;49.864;8.550;2023-03-11T04:11:28;2.40;;;1.63;;
10088;SDS011;51898;49.864;8.550;2023-03-11T04:14:29;4.20;;;1.30;;
10088;SDS011;51898;49.864;8.550;2023-03-11T04:17:31;6.33;;;1.93;;
10088;SDS011;51898;49.864;8.550;2023-03-11T04:20:33;3.10;;;1.67;;
10088;SDS011;51898;49.864;8.550;2023-03-11T04:23:34;9.23;;;1.63;;
10088;SDS011;51898;49.864;8.550;2023-03-11T04:26:36;3.30;;;1.30;;
10088;SDS011;51898;49.864;8.550;2023-03-11T04:29:37;2.10;;;1.20;;
10088;SDS011;51898;49.864;8.550;2023-03-11T04:32:39;7.13;;;1.90;;
10088;SDS011;51898;49.864;8.550;2023-03-11T04:35:41;6.03;;;1.40;;
10088;SDS011;51898;49.864;8.550;2023-03-11T04:38:42;6.40;;;1.90;;
10088;SDS011;51898;49.864;8.550;2023-03-11T04:41:46;4.40;;;1.50;;
10088;SDS011;51898;49.864;8.550;2023-03-11T04:44:48;7.03;;;1.43;;
10088;SDS011;51898;49.864;8.550;2023-03-11T04:47:50;7.77;;;1.53;;
10088;SDS011;51898;49.864;8.550;2023-03-11T04:50:52;2.57;;;1.40;;
10088;SDS011;51898;49.864;8.550;2023-03-11T04:53:54;6.40;;;2.00;;
10088;SDS011;51898;49.864;8.550;2023-03-11T04:56:55;3.60;;;1.60;;
10088;SDS011;51898;49.864;8.550;2023-03-11T04:59:57;3.60;;;1.70;;
10088;SDS011;51898;49.864;8.550;2023-03-11T05:02:59;3.43;;;1.93;;
10088;SDS011;51898;49.864;8.550;2023-03-11T05:06:00;10.97;;;2.70;;
10088;SDS011;51898;49.864;8.550;2023-03-11T05:09:02;7.73;;;2.03;;
10088;SDS011;51898;49.864;8.550;2023-03-11T05:12:05;6.27;;;1.90;;
10088;SDS011;51898;49.864;8.550;2023-03-11T05:15:06;4.83;;;1.37;;
10088;SDS011;51898;49.864;8.550;2023-03-11T05:18:08;7.20;;;2.00;;
10088;SDS011;51898;49.864;8.550;2023-03-11T05:21:10;4.60;;;2.27;;
10088;SDS011;51898;49.864;8.550;2023-03-11T05:24:11;3.43;;;1.90;;
10088;SDS011;51898;49.864;8.550;2023-03-11T05:27:13;4.07;;;1.90;;
10088;SDS011;51898;49.864;8.550;2023-03-11T05:30:18;2.40;;;1.97;;
10088;SDS011;51898;49.864;8.550;2023-03-11T05:33:19;6.10;;;2.40;;
10088;SDS011;51898;49.864;8.550;2023-03-11T05:36:21;5.30;;;2.20;;
10088;SDS011;51898;49.864;8.550;2023-03-11T05:39:22;6.90;;;1.97;;
10088;SDS011;51898;49.864;8.550;2023-03-11T05:42:24;4.80;;;2.30;;
10088;SDS011;51898;49.864;8.550;2023-03-11T05:45:26;4.33;;;2.00;;
10088;SDS011;51898;49.864;8.550;2023-03-11T05:48:28;4.47;;;2.17;;
10088;SDS011;51898;49.864;8.550;2023-03-11T05:51:29;2.93;;;2.00;;
10088;SDS011;51898;49.864;8.550;2023-03-11T05:54:31;8.67;;;2.60;;
10088;SDS011;51898;49.864;8.550;2023-03-11T05:57:32;5.40;;;2.97;;
10088;SDS011;51898;49.864;8.550;2023-03-11T06:00:34;7.17;;;2.10;;
10088;SDS011;51898;49.864;8.550;2023-03-11T06:03:37;5.13;;;2.17;;
10088;SDS011;51898;49.864;8.550;2023-03-11T06:06:39;3.33;;;2.40;;
10088;SDS011;51898;49.864;8.550;2023-03-11T06:09:41;4.63;;;2.33;;
10088;SDS011;51898;49.864;8.550;2023-03-11T06:12:43;5.10;;;2.30;;
10088;SDS011;51898;49.864;8.550;2023-03-11T06:15:45;3.87;;;2.40;;
10088;SDS011;51898;49.864;8.550;2023-03-11T06:18:46;9.13;;;2.10;;
10088;SDS011;51898;49.864;8.550;2023-03-11T06:21:48;5.93;;;2.20;;
10088;SDS011;51898;49.864;8.550;2023-03-11T06:24:49;6.20;;;1.93;;
10088;SDS011;51898;49.864;8.550;2023-03-11T06:27:51;6.20;;;2.03;;
10088;SDS011;51898;49.864;8.550;2023-03-11T06:30:53;7.53;;;2.30;;
10088;SDS011;51898;49.864;8.550;2023-03-11T06:33:57;7.13;;;2.67;;
10088;SDS011;51898;49.864;8.550;2023-03-11T06:36:59;6.53;;;2.17;;
10088;SDS011;51898;49.864;8.550;2023-03-11T06:40:01;7.53;;;2.63;;
10088;SDS011;51898;49.864;8.550;2023-03-11T06:43:03;4.40;;;1.87;;
10088;SDS011;51898;49.864;8.550;2023-03-11T06:46:09;3.73;;;2.47;;
10088;SDS011;51898;49.864;8.550;2023-03-11T06:49:12;10.97;;;2.90;;
10088;SDS011;51898;49.864;8.550;2023-03-11T06:52:14;6.13;;;2.57;;
10088;SDS011;51898;49.864;8.550;2023-03-11T06:55:15;5.23;;;1.47;;
10088;SDS011;51898;49.864;8.550;2023-03-11T06:58:17;7.97;;;1.77;;
10088;SDS011;51898;49.864;8.550;2023-03-11T07:01:23;13.23;;;2.07;;
10088;SDS011;51898;49.864;8.550;2023-03-11T07:04:26;6.30;;;2.57;;
10088;SDS011;51898;49.864;8.550;2023-03-11T07:07:27;8.70;;;3.13;;
10088;SDS011;51898;49.864;8.550;2023-03-11T07:10:29;7.90;;;2.87;;
10088;SDS011;51898;49.864;8.550;2023-03-11T07:13:31;8.30;;;3.30;;
10088;SDS011;51898;49.864;8.550;2023-03-11T07:16:33;11.50;;;2.90;;
10088;SDS011;51898;49.864;8.550;2023-03-11T07:19:35;14.30;;;5.70;;
10088;SDS011;51898;49.864;8.550;2023-03-11T07:22:36;5.77;;;2.70;;
10088;SDS011;51898;49.864;8.550;2023-03-11T07:25:44;5.90;;;1.80;;
10088;SDS011;51898;49.864;8.550;2023-03-11T07:28:46;7.70;;;3.10;;
10088;SDS011;51898;49.864;8.550;2023-03-11T07:31:49;6.00;;;3.70;;
10088;SDS011;51898;49.864;8.550;2023-03-11T07:34:51;5.60;;;1.93;;
10088;SDS011;51898;49.864;8.550;2023-03-11T07:37:52;6.20;;;2.43;;
10088;SDS011;51898;49.864;8.550;2023-03-11T07:40:57;6.13;;;1.70;;
10088;SDS011;51898;49.864;8.550;2023-03-11T07:44:00;3.13;;;1.80;;
10088;SDS011;51898;49.864;8.550;2023-03-11T07:47:03;4.03;;;1.73;;
10088;SDS011;51898;49.864;8.550;2023-03-11T07:50:05;4.13;;;1.83;;
10088;SDS011;51898;49.864;8.550;2023-03-11T07:53:07;5.40;;;2.73;;
10088;SDS011;51898;49.864;8.550;2023-03-11T07:56:10;8.40;;;2.07;;
10088;SDS011;51898;49.864;8.550;2023-03-11T07:59:12;4.10;;;1.43;;
10088;SDS011;51898;49.864;8.550;2023-03-11T08:02:14;5.53;;;1.87;;
10088;SDS011;51898;49.864;8.550;2023-03-11T08:05:16;2.97;;;1.70;;
10088;SDS011;51898;49.864;8.550;2023-03-11T08:08:20;6.37;;;1.90;;
10088;SDS011;51898;49.864;8.550;2023-03-11T08:11:22;6.63;;;1.90;;
10088;SDS011;51898;49.864;8.550;2023-03-11T08:14:24;8.77;;;2.20;;
10088;SDS011;51898;49.864;8.550;2023-03-11T08:17:26;5.43;;;1.90;;
10088;SDS011;51898;49.864;8.550;2023-03-11T08:20:27;9.07;;;2.07;;
10088;SDS011;51898;49.864;8.550;2023-03-11T08:23:29;5.67;;;1.93;;
10088;SDS011;51898;49.864;8.550;2023-03-11T08:26:31;3.37;;;2.00;;
10088;SDS011;51898;49.864;8.550;2023-03-11T08:29:33;4.03;;;1.70;;
10088;SDS011;51898;49.864;8.550;2023-03-11T08:32:34;8.57;;;1.90;;
10088;SDS011;51898;49.864;8.550;2023-03-11T08:35:36;2.40;;;1.40;;
10088;SDS011;51898;49.864;8.550;2023-03-11T08:38:38;4.23;;;1.40;;
10088;SDS011;51898;49.864;8.550;2023-03-11T08:41:40;4.60;;;1.40;;
10088;SDS011;51898;49.864;8.550;2023-03-11T08:44:41;3.83;;;1.90;;
10088;SDS011;51898;49.864;8.550;2023-03-11T08:47:43;3.40;;;1.50;;
10088;SDS011;51898;49.864;8.550;2023-03-11T08:50:44;2.40;;;1.47;;
10088;SDS011;51898;49.864;8.550;2023-03-11T08:53:54;4.70;;;1.40;;
10088;SDS011;51898;49.864;8.550;2023-03-11T08:56:56;4.17;;;1.60;;
10088;SDS011;51898;49.864;8.550;2023-03-11T09:00:03;2.90;;;1.37;;
10088;SDS011;51898;49.864;8.550;2023-03-11T09:03:07;8.57;;;1.93;;
10088;SDS011;51898;49.864;8.550;2023-03-11T09:06:10;4.83;;;1.60;;
10088;SDS011;51898;49.864;8.550;2023-03-11T09:09:15;3.43;;;1.87;;
10088;SDS011;51898;49.864;8.550;2023-03-11T09:12:20;4.50;;;1.87;;
10088;SDS011;51898;49.864;8.550;2023-03-11T09:15:22;3.67;;;1.97;;
10088;SDS011;51898;49.864;8.550;2023-03-11T09:18:23;3.87;;;1.80;;
10088;SDS011;51898;49.864;8.550;2023-03-11T09:21:25;3.00;;;1.50;;
10088;SDS011;51898;49.864;8.550;2023-03-11T09:24:26;3.37;;;1.77;;
10088;SDS011;51898;49.864;8.550;2023-03-11T09:27:28;4.07;;;1.63;;
10088;SDS011;51898;49.864;8.550;2023-03-11T09:30:30;7.00;;;1.60;;
10088;SDS011;51898;49.864;8.550;2023-03-11T09:33:35;3.43;;;1.93;;
10088;SDS011;51898;49.864;8.550;2023-03-11T09:36:41;5.80;;;1.87;;
10088;SDS011;51898;49.864;8.550;2023-03-11T09:39:43;4.13;;;1.60;;
10088;SDS011;51898;49.864;8.550;2023-03-11T09:43:04;8.27;;;2.10;;
10088;SDS011;51898;49.864;8.550;2023-03-11T09:49:58;5.27;;;1.90;;
10088;SDS011;51898;49.864;8.550;2023-03-11T09:53:22;6.20;;;2.27;;
10088;SDS011;51898;49.864;8.550;2023-03-11T09:56:29;4.70;;;2.03;;
10088;SDS011;51898;49.864;8.550;2023-03-11T09:59:34;3.63;;;1.90;;
10088;SDS011;51898;49.864;8.550;2023-03-11T10:02:38;2.70;;;1.87;;
10088;SDS011;51898;49.864;8.550;2023-03-11T10:05:40;4.07;;;2.00;;
10088;SDS011;51898;49.864;8.550;2023-03-11T10:08:49;4.10;;;1.93;;
10088;SDS011;51898;49.864;8.550;2023-03-11T10:15:46;8.50;;;2.30;;
10088;SDS011;51898;49.864;8.550;2023-03-11T10:19:03;6.13;;;2.00;;
10088;SDS011;51898;49.864;8.550;2023-03-11T10:22:13;5.57;;;2.20;;
10088;SDS011;51898;49.864;8.550;2023-03-11T10:28:46;5.60;;;3.10;;
10088;SDS011;51898;49.864;8.550;2023-03-11T10:35:25;3.70;;;1.93;;
10088;SDS011;51898;49.864;8.550;2023-03-11T10:38:38;2.37;;;1.50;;
10088;SDS011;51898;49.864;8.550;2023-03-11T10:41:53;2.10;;;1.90;;
10088;SDS011;51898;49.864;8.550;2023-03-11T10:44:57;2.10;;;1.70;;
10088;SDS011;51898;49.864;8.550;2023-03-11T10:47:59;4.97;;;2.60;;
10088;SDS011;51898;49.864;8.550;2023-03-11T10:51:01;2.80;;;2.10;;
10088;SDS011;51898;49.864;8.550;2023-03-11T10:55:14;3.60;;;1.73;;
10088;SDS011;51898;49.864;8.550;2023-03-11T10:57:46;3.93;;;1.57;;
10088;SDS011;51898;49.864;8.550;2023-03-11T11:01:05;1.80;;;1.70;;
10088;SDS011;51898;49.864;8.550;2023-03-11T11:04:11;1.83;;;1.73;;
10088;SDS011;51898;49.864;8.550;2023-03-11T11:07:29;3.00;;;2.00;;
10088;SDS011;51898;49.864;8.550;2023-03-11T11:10:36;4.23;;;1.57;;
10088;SDS011;51898;49.864;8.550;2023-03-11T11:13:55;6.73;;;1.73;;
10088;SDS011;51898;49.864;8.550;2023-03-11T11:16:57;2.87;;;1.90;;
10088;SDS011;51898;49.864;8.550;2023-03-11T11:20:00;4.10;;;2.90;;
10088;SDS011;51898;49.864;8.550;2023-03-11T11:23:23;2.03;;;1.83;;
10088;SDS011;51898;49.864;8.550;2023-03-11T11:26:26;3.57;;;1.90;;
10088;SDS011;51898;49.864;8.550;2023-03-11T11:29:28;3.20;;;2.27;;
10088;SDS011;51898;49.864;8.550;2023-03-11T11:32:30;6.30;;;1.80;;
10088;SDS011;51898;49.864;8.550;2023-03-11T11:35:31;3.90;;;2.20;;
10088;SDS011;51898;49.864;8.550;2023-03-11T11:38:34;3.03;;;2.00;;
10088;SDS011;51898;49.864;8.550;2023-03-11T11:41:35;2.77;;;2.10;;
10088;SDS011;51898;49.864;8.550;2023-03-11T11:44:37;4.00;;;2.63;;
10088;SDS011;51898;49.864;8.550;2023-03-11T11:47:43;2.57;;;2.37;;
10088;SDS011;51898;49.864;8.550;2023-03-11T11:50:52;3.67;;;2.10;;
10088;SDS011;51898;49.864;8.550;2023-03-11T11:57:29;2.90;;;1.80;;
10088;SDS011;51898;49.864;8.550;2023-03-11T12:00:49;2.30;;;1.87;;
10088;SDS011;51898;49.864;8.550;2023-03-11T12:11:06;3.33;;;1.97;;
10088;SDS011;51898;49.864;8.550;2023-03-11T12:17:19;6.13;;;1.87;;
10088;SDS011;51898;49.864;8.550;2023-03-11T12:20:25;4.60;;;1.90;;
10088;SDS011;51898;49.864;8.550;2023-03-11T12:23:41;4.37;;;2.30;;
10088;SDS011;51898;49.864;8.550;2023-03-11T12:26:57;3.23;;;2.17;;
10088;SDS011;51898;49.864;8.550;2023-03-11T12:30:04;3.60;;;2.50;;
10088;SDS011;51898;49.864;8.550;2023-03-11T12:36:34;4.37;;;2.20;;
10088;SDS011;51898;49.864;8.550;2023-03-11T12:39:38;2.20;;;2.00;;
10088;SDS011;51898;49.864;8.550;2023-03-11T12:42:40;4.30;;;2.40;;
10088;SDS011;51898;49.864;8.550;2023-03-11T12:45:51;3.83;;;2.53;;
10088;SDS011;51898;49.864;8.550;2023-03-11T12:49:11;6.13;;;2.30;;
10088;SDS011;51898;49.864;8.550;2023-03-11T12:52:16;7.43;;;2.33;;
10088;SDS011;51898;49.864;8.550;2023-03-11T12:55:23;2.43;;;2.20;;
10088;SDS011;51898;49.864;8.550;2023-03-11T13:02:11;4.20;;;2.30;;
10088;SDS011;51898;49.864;8.550;2023-03-11T13:05:56;3.57;;;2.20;;
10088;SDS011;51898;49.864;8.550;2023-03-11T13:09:10;4.27;;;2.20;;
10088;SDS011;51898;49.864;8.550;2023-03-11T13:12:36;9.40;;;3.07;;
10088;SDS011;51898;49.864;8.550;2023-03-11T13:15:47;3.53;;;3.03;;
10088;SDS011;51898;49.864;8.550;2023-03-11T13:18:49;3.80;;;2.13;;
10088;SDS011;51898;49.864;8.550;2023-03-11T13:21:55;4.40;;;2.70;;
10088;SDS011;51898;49.864;8.550;2023-03-11T13:24:59;5.13;;;2.67;;
10088;SDS011;51898;49.864;8.550;2023-03-11T13:32:24;3.03;;;2.60;;
10088;SDS011;51898;49.864;8.550;2023-03-11T13:38:46;2.40;;;2.13;;
10088;SDS011;51898;49.864;8.550;2023-03-11T13:42:12;3.10;;;2.10;;
10088;SDS011;51898;49.864;8.550;2023-03-11T13:45:28;3.30;;;2.50;;
10088;SDS011;51898;49.864;8.550;2023-03-11T13:48:36;3.73;;;2.90;;
10088;SDS011;51898;49.864;8.550;2023-03-11T13:51:44;3.17;;;2.10;;
10088;SDS011;51898;49.864;8.550;2023-03-11T13:55:00;2.73;;;2.53;;
10088;SDS011;51898;49.864;8.550;2023-03-11T13:58:14;3.07;;;2.27;;
10088;SDS011;51898;49.864;8.550;2023-03-11T14:01:17;2.90;;;2.57;;
10088;SDS011;51898;49.864;8.550;2023-03-11T14:04:22;2.93;;;2.20;;
10088;SDS011;51898;49.864;8.550;2023-03-11T14:07:31;2.83;;;2.70;;
10088;SDS011;51898;49.864;8.550;2023-03-11T14:10:38;3.83;;;2.30;;
10088;SDS011;51898;49.864;8.550;2023-03-11T14:13:46;4.50;;;2.67;;
10088;SDS011;51898;49.864;8.550;2023-03-11T14:16:50;4.03;;;2.90;;
10088;SDS011;51898;49.864;8.550;2023-03-11T14:23:32;7.27;;;2.60;;
10088;SDS011;51898;49.864;8.550;2023-03-11T14:26:46;5.33;;;2.50;;
10088;SDS011;51898;49.864;8.550;2023-03-11T14:29:50;4.03;;;2.90;;
10088;SDS011;51898;49.864;8.550;2023-03-11T14:33:03;4.37;;;2.70;;
10088;SDS011;51898;49.864;8.550;2023-03-11T14:36:09;2.60;;;2.50;;
10088;SDS011;51898;49.864;8.550;2023-03-11T14:42:35;9.10;;;2.80;;
10088;SDS011;51898;49.864;8.550;2023-03-11T14:45:41;2.50;;;2.30;;
10088;SDS011;51898;49.864;8.550;2023-03-11T14:48:43;4.33;;;2.73;;
10088;SDS011;51898;49.864;8.550;2023-03-11T14:51:54;2.67;;;2.47;;
10088;SDS011;51898;49.864;8.550;2023-03-11T14:55:01;2.37;;;2.17;;
10088;SDS011;51898;49.864;8.550;2023-03-11T15:01:37;3.23;;;2.27;;
10088;SDS011;51898;49.864;8.550;2023-03-11T15:04:41;3.17;;;2.40;;
10088;SDS011;51898;49.864;8.550;2023-03-11T15:07:44;2.00;;;1.90;;
10088;SDS011;51898;49.864;8.550;2023-03-11T15:14:08;4.07;;;2.70;;
10088;SDS011;51898;49.864;8.550;2023-03-11T15:17:24;6.57;;;2.30;;
10088;SDS011;51898;49.864;8.550;2023-03-11T15:20:41;2.50;;;2.20;;
10088;SDS011;51898;49.864;8.550;2023-03-11T15:23:47;3.53;;;2.37;;
10088;SDS011;51898;49.864;8.550;2023-03-11T15:27:01;2.70;;;2.50;;
10088;SDS011;51898;49.864;8.550;2023-03-11T15:30:24;4.93;;;2.63;;
10088;SDS011;51898;49.864;8.550;2023-03-11T15:33:30;2.30;;;2.10;;
10088;SDS011;51898;49.864;8.550;2023-03-11T15:36:34;3.40;;;3.10;;
10088;SDS011;51898;49.864;8.550;2023-03-11T15:39:40;3.97;;;2.37;;
10088;SDS011;51898;49.864;8.550;2023-03-11T15:42:44;11.00;;;2.60;;
10088;SDS011;51898;49.864;8.550;2023-03-11T15:45:46;3.23;;;2.20;;
10088;SDS011;51898;49.864;8.550;2023-03-11T15:48:49;6.00;;;2.30;;
10088;SDS011;51898;49.864;8.550;2023-03-11T15:51:50;2.97;;;2.20;;
10088;SDS011;51898;49.864;8.550;2023-03-11T15:54:52;4.20;;;2.10;;
10088;SDS011;51898;49.864;8.550;2023-03-11T15:58:04;3.83;;;2.13;;
10088;SDS011;51898;49.864;8.550;2023-03-11T16:01:08;3.63;;;2.30;;
10088;SDS011;51898;49.864;8.550;2023-03-11T16:04:14;5.17;;;2.27;;
10088;SDS011;51898;49.864;8.550;2023-03-11T16:07:19;4.87;;;2.77;;
10088;SDS011;51898;49.864;8.550;2023-03-11T16:10:39;5.20;;;2.17;;
10088;SDS011;51898;49.864;8.550;2023-03-11T16:13:41;4.80;;;2.50;;
10088;SDS011;51898;49.864;8.550;2023-03-11T16:16:43;3.13;;;1.93;;
10088;SDS011;51898;49.864;8.550;2023-03-11T16:19:45;5.60;;;2.60;;
10088;SDS011;51898;49.864;8.550;2023-03-11T16:22:50;3.97;;;2.20;;
10088;SDS011;51898;49.864;8.550;2023-03-11T16:25:58;3.23;;;2.40;;
10088;SDS011;51898;49.864;8.550;2023-03-11T16:29:01;5.30;;;2.60;;
10088;SDS011;51898;49.864;8.550;2023-03-11T16:32:18;4.47;;;2.77;;
10088;SDS011;51898;49.864;8.550;2023-03-11T16:35:20;3.00;;;2.33;;
10088;SDS011;51898;49.864;8.550;2023-03-11T16:38:22;3.80;;;2.10;;
10088;SDS011;51898;49.864;8.550;2023-03-11T16:41:24;3.37;;;2.07;;
10088;SDS011;51898;49.864;8.550;2023-03-11T16:44:25;2.63;;;1.90;;
10088;SDS011;51898;49.864;8.550;2023-03-11T16:47:27;6.13;;;2.63;;
10088;SDS011;51898;49.864;8.550;2023-03-11T16:50:29;4.80;;;2.37;;
10088;SDS011;51898;49.864;8.550;2023-03-11T16:53:31;2.43;;;2.20;;
10088;SDS011;51898;49.864;8.550;2023-03-11T16:56:33;5.00;;;2.10;;
10088;SDS011;51898;49.864;8.550;2023-03-11T16:59:35;4.77;;;2.50;;
10088;SDS011;51898;49.864;8.550;2023-03-11T17:02:37;2.20;;;2.00;;
10088;SDS011;51898;49.864;8.550;2023-03-11T17:05:39;2.20;;;2.00;;
10088;SDS011;51898;49.864;8.550;2023-03-11T17:08:41;3.43;;;2.40;;
10088;SDS011;51898;49.864;8.550;2023-03-11T17:11:46;2.43;;;2.23;;
10088;SDS011;51898;49.864;8.550;2023-03-11T17:14:50;4.03;;;2.73;;
10088;SDS011;51898;49.864;8.550;2023-03-11T17:17:52;3.03;;;2.23;;
10088;SDS011;51898;49.864;8.550;2023-03-11T17:20:53;9.63;;;2.30;;
10088;SDS011;51898;49.864;8.550;2023-03-11T17:23:55;2.83;;;2.20;;
10088;SDS011;51898;49.864;8.550;2023-03-11T17:26:58;4.03;;;2.20;;
10088;SDS011;51898;49.864;8.550;2023-03-11T17:30:01;9.17;;;2.67;;
10088;SDS011;51898;49.864;8.550;2023-03-11T17:33:04;4.07;;;2.37;;
10088;SDS011;51898;49.864;8.550;2023-03-11T17:36:07;5.43;;;2.23;;
10088;SDS011;51898;49.864;8.550;2023-03-11T17:39:11;10.17;;;2.80;;
10088;SDS011;51898;49.864;8.550;2023-03-11T17:42:12;5.30;;;2.97;;
10088;SDS011;51898;49.864;8.550;2023-03-11T17:45:14;2.90;;;2.70;;
10088;SDS011;51898;49.864;8.550;2023-03-11T17:48:16;4.23;;;3.13;;
10088;SDS011;51898;49.864;8.550;2023-03-11T17:51:19;4.60;;;2.57;;
10088;SDS011;51898;49.864;8.550;2023-03-11T17:54:22;3.23;;;2.80;;
10088;SDS011;51898;49.864;8.550;2023-03-11T17:57:24;8.00;;;3.27;;
10088;SDS011;51898;49.864;8.550;2023-03-11T18:00:26;10.13;;;3.20;;
10088;SDS011;51898;49.864;8.550;2023-03-11T18:03:27;3.87;;;2.87;;
10088;SDS011;51898;49.864;8.550;2023-03-11T18:06:30;6.53;;;3.60;;
10088;SDS011;51898;49.864;8.550;2023-03-11T18:09:31;7.87;;;4.37;;
10088;SDS011;51898;49.864;8.550;2023-03-11T18:12:33;9.33;;;4.10;;
10088;SDS011;51898;49.864;8.550;2023-03-11T18:15:35;29.70;;;7.80;;
10088;SDS011;51898;49.864;8.550;2023-03-11T18:18:36;12.57;;;5.10;;
10088;SDS011;51898;49.864;8.550;2023-03-11T18:21:39;4.00;;;3.23;;
10088;SDS011;51898;49.864;8.550;2023-03-11T18:24:40;7.30;;;4.03;;
10088;SDS011;51898;49.864;8.550;2023-03-11T18:27:42;6.33;;;3.03;;
10088;SDS011;51898;49.864;8.550;2023-03-11T18:30:44;14.60;;;3.50;;
10088;SDS011;51898;49.864;8.550;2023-03-11T18:33:50;6.87;;;3.30;;
10088;SDS011;51898;49.864;8.550;2023-03-11T18:36:54;5.00;;;3.50;;
10088;SDS011;51898;49.864;8.550;2023-03-11T18:39:55;4.90;;;3.17;;
10088;SDS011;51898;49.864;8.550;2023-03-11T18:42:57;7.30;;;4.50;;
10088;SDS011;51898;49.864;8.550;2023-03-11T18:45:59;7.37;;;4.93;;
10088;SDS011;51898;49.864;8.550;2023-03-11T18:49:02;22.40;;;11.30;;
10088;SDS011;51898;49.864;8.550;2023-03-11T18:52:03;24.27;;;11.60;;
10088;SDS011;51898;49.864;8.550;2023-03-11T18:55:05;16.00;;;10.17;;
10088;SDS011;51898;49.864;8.550;2023-03-11T18:58:07;14.67;;;9.77;;
10088;SDS011;51898;49.864;8.550;2023-03-11T19:01:17;17.97;;;11.73;;
10088;SDS011;51898;49.864;8.550;2023-03-11T19:04:20;15.80;;;10.67;;
10088;SDS011;51898;49.864;8.550;2023-03-11T19:07:21;17.33;;;10.00;;
10088;SDS011;51898;49.864;8.550;2023-03-11T19:10:23;12.83;;;9.60;;
10088;SDS011;51898;49.864;8.550;2023-03-11T19:13:25;15.87;;;8.10;;
10088;SDS011;51898;49.864;8.550;2023-03-11T19:16:46;17.60;;;10.40;;
10088;SDS011;51898;49.864;8.550;2023-03-11T19:19:48;16.60;;;10.77;;
10088;SDS011;51898;49.864;8.550;2023-03-11T19:22:49;21.10;;;10.60;;
10088;SDS011;51898;49.864;8.550;2023-03-11T19:25:53;24.93;;;14.23;;
10088;SDS011;51898;49.864;8.550;2023-03-11T19:29:03;21.03;;;10.07;;